sensor_id;sensor_type;location;lat;lon;timestamp;pressure;altitude;pressure_sealevel;temperature;humidity
69911;BME280;63555;49.920;17.868;2023-02-19T00:00:16;98463.72;;;7.41;74.65
69911;BME280;63555;49.920;17.868;2023-02-19T00:05:16;98472.97;;;7.47;75.08
69911;BME280;63555;49.920;17.868;2023-02-19T00:10:17;98471.81;;;7.51;74.94
69911;BME280;63555;49.920;17.868;2023-02-19T00:15:17;98475.19;;;7.53;74.36
69911;BME280;63555;49.920;17.868;2023-02-19T00:20:17;98476.88;;;7.54;74.88
69911;BME280;63555;49.920;17.868;2023-02-19T00:25:18;98475.81;;;7.56;74.28
69911;BME280;63555;49.920;17.868;2023-02-19T00:30:18;98480.44;;;7.53;74.34
69911;BME280;63555;49.920;17.868;2023-02-19T00:35:19;98479.78;;;7.37;75.18
69911;BME280;63555;49.920;17.868;2023-02-19T00:40:19;98476.41;;;7.22;75.64
69911;BME280;63555;49.920;17.868;2023-02-19T00:45:19;98476.56;;;7.06;76.56
69911;BME280;63555;49.920;17.868;2023-02-19T00:50:20;98475.59;;;6.94;76.82
69911;BME280;63555;49.920;17.868;2023-02-19T00:55:20;98460.56;;;6.84;77.21
69911;BME280;63555;49.920;17.868;2023-02-19T01:00:20;98466.94;;;6.80;77.19
69911;BME280;63555;49.920;17.868;2023-02-19T01:05:21;98466.94;;;6.80;77.60
69911;BME280;63555;49.920;17.868;2023-02-19T01:10:21;98468.41;;;6.84;77.45
69911;BME280;63555;49.920;17.868;2023-02-19T01:15:22;98469.53;;;6.94;77.11
69911;BME280;63555;49.920;17.868;2023-02-19T01:20:22;98465.13;;;6.94;77.42
69911;BME280;63555;49.920;17.868;2023-02-19T01:25:22;98461.00;;;6.90;77.43
69911;BME280;63555;49.920;17.868;2023-02-19T01:30:23;98453.44;;;6.86;77.25
69911;BME280;63555;49.920;17.868;2023-02-19T01:35:23;98450.81;;;6.86;77.54
69911;BME280;63555;49.920;17.868;2023-02-19T01:40:24;98454.53;;;6.96;77.67
69911;BME280;63555;49.920;17.868;2023-02-19T01:45:34;98439.66;;;7.09;77.28
69911;BME280;63555;49.920;17.868;2023-02-19T01:50:43;98441.66;;;7.06;77.02
69911;BME280;63555;49.920;17.868;2023-02-19T01:55:47;98432.53;;;6.98;76.67
69911;BME280;63555;49.920;17.868;2023-02-19T02:00:48;98429.75;;;6.87;77.18
69911;BME280;63555;49.920;17.868;2023-02-19T02:05:56;98421.63;;;6.78;77.28
69911;BME280;63555;49.920;17.868;2023-02-19T02:10:58;98415.03;;;6.72;77.71
69911;BME280;63555;49.920;17.868;2023-02-19T02:16:05;98405.16;;;6.63;78.07
69911;BME280;63555;49.920;17.868;2023-02-19T02:21:35;98398.09;;;6.51;78.68
69911;BME280;63555;49.920;17.868;2023-02-19T02:32:11;98332.44;;;6.27;78.53
69911;BME280;63555;49.920;17.868;2023-02-19T02:37:15;98361.94;;;6.02;78.87
69911;BME280;63555;49.920;17.868;2023-02-19T02:42:15;98358.13;;;5.79;78.72
69911;BME280;63555;49.920;17.868;2023-02-19T02:47:30;98325.38;;;5.59;79.48
69911;BME280;63555;49.920;17.868;2023-02-19T02:52:43;98336.41;;;5.50;80.04
69911;BME280;63555;49.920;17.868;2023-02-19T02:58:03;98348.97;;;5.72;80.56
69911;BME280;63555;49.920;17.868;2023-02-19T03:03:04;98339.59;;;6.11;80.01
69911;BME280;63555;49.920;17.868;2023-02-19T03:08:09;98354.41;;;6.51;79.43
69911;BME280;63555;49.920;17.868;2023-02-19T03:18:47;98347.16;;;7.07;77.33
69911;BME280;63555;49.920;17.868;2023-02-19T03:24:09;98340.34;;;7.17;77.73
69911;BME280;63555;49.920;17.868;2023-02-19T03:29:30;98337.09;;;7.26;77.33
69911;BME280;63555;49.920;17.868;2023-02-19T03:34:37;98335.84;;;7.32;76.76
69911;BME280;63555;49.920;17.868;2023-02-19T03:39:38;98315.59;;;7.34;77.04
69911;BME280;63555;49.920;17.868;2023-02-19T03:44:44;98298.50;;;7.16;77.63
69911;BME280;63555;49.920;17.868;2023-02-19T04:00:12;98302.88;;;6.64;79.07
69911;BME280;63555;49.920;17.868;2023-02-19T04:05:18;98307.06;;;6.67;79.49
69911;BME280;63555;49.920;17.868;2023-02-19T04:10:21;98298.91;;;6.71;79.49
69911;BME280;63555;49.920;17.868;2023-02-19T04:15:26;98307.59;;;6.72;79.13
69911;BME280;63555;49.920;17.868;2023-02-19T04:20:32;98310.75;;;6.77;79.31
69911;BME280;63555;49.920;17.868;2023-02-19T04:25:34;98310.31;;;6.83;79.71
69911;BME280;63555;49.920;17.868;2023-02-19T04:30:37;98311.59;;;6.90;79.03
69911;BME280;63555;49.920;17.868;2023-02-19T04:35:37;98278.06;;;6.95;79.24
69911;BME280;63555;49.920;17.868;2023-02-19T04:40:37;98268.00;;;7.02;78.93
69911;BME280;63555;49.920;17.868;2023-02-19T04:45:38;98269.25;;;7.09;78.93
69911;BME280;63555;49.920;17.868;2023-02-19T04:50:39;98279.22;;;7.17;78.41
69911;BME280;63555;49.920;17.868;2023-02-19T04:55:39;98258.97;;;7.19;78.81
69911;BME280;63555;49.920;17.868;2023-02-19T05:00:40;98252.56;;;7.23;78.18
69911;BME280;63555;49.920;17.868;2023-02-19T05:05:40;98260.84;;;7.29;77.91
69911;BME280;63555;49.920;17.868;2023-02-19T05:10:40;98253.47;;;7.34;77.86
69911;BME280;63555;49.920;17.868;2023-02-19T05:15:41;98263.25;;;7.32;77.76
69911;BME280;63555;49.920;17.868;2023-02-19T05:20:41;98264.63;;;7.13;78.68
69911;BME280;63555;49.920;17.868;2023-02-19T05:25:41;98263.88;;;6.85;78.95
69911;BME280;63555;49.920;17.868;2023-02-19T05:30:49;98268.81;;;6.64;81.86
69911;BME280;63555;49.920;17.868;2023-02-19T05:35:53;98268.16;;;6.48;82.77
69911;BME280;63555;49.920;17.868;2023-02-19T05:40:53;98266.16;;;6.39;84.23
69911;BME280;63555;49.920;17.868;2023-02-19T05:45:57;98256.19;;;6.31;86.54
69911;BME280;63555;49.920;17.868;2023-02-19T05:51:09;98246.22;;;6.24;87.45
69911;BME280;63555;49.920;17.868;2023-02-19T06:01:29;98246.53;;;6.19;88.38
69911;BME280;63555;49.920;17.868;2023-02-19T06:06:29;98236.16;;;6.18;88.76
69911;BME280;63555;49.920;17.868;2023-02-19T06:11:30;98244.03;;;6.18;89.15
69911;BME280;63555;49.920;17.868;2023-02-19T06:16:31;98243.81;;;6.21;89.56
69911;BME280;63555;49.920;17.868;2023-02-19T06:21:32;98237.44;;;6.25;89.80
69911;BME280;63555;49.920;17.868;2023-02-19T06:26:33;98237.22;;;6.28;90.08
69911;BME280;63555;49.920;17.868;2023-02-19T06:31:33;98232.63;;;6.31;89.39
69911;BME280;63555;49.920;17.868;2023-02-19T06:36:34;98237.56;;;6.36;88.80
69911;BME280;63555;49.920;17.868;2023-02-19T06:41:34;98231.19;;;6.40;88.28
69911;BME280;63555;49.920;17.868;2023-02-19T06:46:35;98217.88;;;6.43;88.87
69911;BME280;63555;49.920;17.868;2023-02-19T06:51:35;98226.47;;;6.45;88.29
69911;BME280;63555;49.920;17.868;2023-02-19T06:56:37;98226.47;;;6.45;87.76
69911;BME280;63555;49.920;17.868;2023-02-19T07:01:39;98225.63;;;6.45;87.21
69911;BME280;63555;49.920;17.868;2023-02-19T07:06:39;98223.84;;;6.45;87.54
69911;BME280;63555;49.920;17.868;2023-02-19T07:11:39;98216.72;;;6.47;87.05
69911;BME280;63555;49.920;17.868;2023-02-19T07:16:40;98214.84;;;6.49;87.26
69911;BME280;63555;49.920;17.868;2023-02-19T07:21:41;98211.81;;;6.55;87.06
69911;BME280;63555;49.920;17.868;2023-02-19T07:26:41;98194.00;;;6.60;87.02
69911;BME280;63555;49.920;17.868;2023-02-19T07:31:42;98190.31;;;6.63;86.96
69911;BME280;63555;49.920;17.868;2023-02-19T07:36:42;98177.94;;;6.65;86.92
69911;BME280;63555;49.920;17.868;2023-02-19T07:41:42;98154.06;;;6.69;86.48
69911;BME280;63555;49.920;17.868;2023-02-19T07:46:43;98159.69;;;6.89;86.67
69911;BME280;63555;49.920;17.868;2023-02-19T07:51:43;98165.22;;;7.10;86.63
69911;BME280;63555;49.920;17.868;2023-02-19T07:56:44;98171.38;;;7.21;85.96
69911;BME280;63555;49.920;17.868;2023-02-19T08:01:44;98169.72;;;7.44;86.84
69911;BME280;63555;49.920;17.868;2023-02-19T08:07:03;98164.31;;;7.82;86.24
69911;BME280;63555;49.920;17.868;2023-02-19T08:12:04;98160.56;;;7.97;85.31
69911;BME280;63555;49.920;17.868;2023-02-19T08:17:23;98153.53;;;7.98;84.24
69911;BME280;63555;49.920;17.868;2023-02-19T08:22:23;98151.56;;;7.65;85.04
69911;BME280;63555;49.920;17.868;2023-02-19T08:27:24;98164.13;;;7.49;86.00
69911;BME280;63555;49.920;17.868;2023-02-19T08:32:24;98163.97;;;7.63;86.93
69911;BME280;63555;49.920;17.868;2023-02-19T08:37:24;98157.09;;;7.73;86.46
69911;BME280;63555;49.920;17.868;2023-02-19T08:42:27;98157.22;;;7.72;86.11
69911;BME280;63555;49.920;17.868;2023-02-19T08:47:27;98160.06;;;7.68;85.85
69911;BME280;63555;49.920;17.868;2023-02-19T08:52:28;98163.28;;;7.72;86.39
69911;BME280;63555;49.920;17.868;2023-02-19T08:57:28;98167.53;;;7.62;86.43
69911;BME280;63555;49.920;17.868;2023-02-19T09:02:28;98177.81;;;7.41;87.68
69911;BME280;63555;49.920;17.868;2023-02-19T09:07:30;98178.88;;;7.39;89.08
69911;BME280;63555;49.920;17.868;2023-02-19T09:12:31;98193.00;;;7.49;89.98
69911;BME280;63555;49.920;17.868;2023-02-19T09:17:32;98202.81;;;7.58;90.78
69911;BME280;63555;49.920;17.868;2023-02-19T09:22:33;98221.31;;;7.56;90.76
69911;BME280;63555;49.920;17.868;2023-02-19T09:27:34;98234.88;;;7.50;89.93
69911;BME280;63555;49.920;17.868;2023-02-19T09:32:34;98257.22;;;7.43;91.03
69911;BME280;63555;49.920;17.868;2023-02-19T09:37:34;98250.75;;;7.36;90.72
69911;BME280;63555;49.920;17.868;2023-02-19T09:42:39;98261.88;;;7.27;90.55
69911;BME280;63555;49.920;17.868;2023-02-19T09:47:40;98250.97;;;7.33;90.93
69911;BME280;63555;49.920;17.868;2023-02-19T09:52:45;98263.97;;;7.34;89.89
69911;BME280;63555;49.920;17.868;2023-02-19T09:57:47;98267.34;;;7.24;89.35
69911;BME280;63555;49.920;17.868;2023-02-19T10:03:01;98267.69;;;7.07;88.89
69911;BME280;63555;49.920;17.868;2023-02-19T10:08:04;98275.84;;;6.89;89.18
69911;BME280;63555;49.920;17.868;2023-02-19T10:13:29;98289.06;;;6.88;89.25
69911;BME280;63555;49.920;17.868;2023-02-19T10:18:41;98305.53;;;7.02;89.93
69911;BME280;63555;49.920;17.868;2023-02-19T10:23:43;98317.91;;;7.13;89.53
69911;BME280;63555;49.920;17.868;2023-02-19T10:28:43;98328.72;;;7.09;88.83
69911;BME280;63555;49.920;17.868;2023-02-19T10:33:55;98334.16;;;7.31;89.97
69911;BME280;63555;49.920;17.868;2023-02-19T10:38:56;98342.59;;;7.73;89.62
69911;BME280;63555;49.920;17.868;2023-02-19T10:44:14;98352.66;;;7.91;88.62
69911;BME280;63555;49.920;17.868;2023-02-19T10:49:24;98354.16;;;7.83;87.61
69911;BME280;63555;49.920;17.868;2023-02-19T10:54:30;98361.41;;;7.66;88.10
69911;BME280;63555;49.920;17.868;2023-02-19T10:59:31;98371.81;;;7.55;88.00
69911;BME280;63555;49.920;17.868;2023-02-19T11:04:32;98385.03;;;7.54;88.21
69911;BME280;63555;49.920;17.868;2023-02-19T11:09:37;98400.78;;;7.28;86.40
69911;BME280;63555;49.920;17.868;2023-02-19T11:14:42;98407.81;;;6.88;87.64
69911;BME280;63555;49.920;17.868;2023-02-19T11:19:43;98417.78;;;6.83;88.58
69911;BME280;63555;49.920;17.868;2023-02-19T11:24:49;98422.72;;;7.40;88.63
69911;BME280;63555;49.920;17.868;2023-02-19T11:29:50;98445.19;;;8.44;89.62
69911;BME280;63555;49.920;17.868;2023-02-19T11:34:51;98437.78;;;10.12;86.53
69911;BME280;63555;49.920;17.868;2023-02-19T11:39:51;98436.31;;;11.16;80.97
69911;BME280;63555;49.920;17.868;2023-02-19T12:00:34;98478.53;;;8.18;80.07
69911;BME280;63555;49.920;17.868;2023-02-19T12:06:07;98474.25;;;7.79;81.17
69911;BME280;63555;49.920;17.868;2023-02-19T12:17:02;98491.25;;;7.61;80.16
69911;BME280;63555;49.920;17.868;2023-02-19T12:38:21;98532.25;;;6.83;80.86
69911;BME280;63555;49.920;17.868;2023-02-19T12:43:24;98532.25;;;6.83;79.08
69911;BME280;63555;49.920;17.868;2023-02-19T12:48:37;98544.47;;;6.55;79.76
69911;BME280;63555;49.920;17.868;2023-02-19T12:54:22;98552.25;;;6.57;79.45
69911;BME280;63555;49.920;17.868;2023-02-19T12:59:34;98564.88;;;6.50;79.13
69911;BME280;63555;49.920;17.868;2023-02-19T13:04:57;98571.81;;;6.37;79.71
69911;BME280;63555;49.920;17.868;2023-02-19T13:10:28;98571.34;;;6.16;78.16
69911;BME280;63555;49.920;17.868;2023-02-19T13:15:40;98580.06;;;5.87;78.71
69911;BME280;63555;49.920;17.868;2023-02-19T13:20:44;98580.31;;;5.68;78.77
69911;BME280;63555;49.920;17.868;2023-02-19T13:36:30;98586.81;;;5.61;78.36
69911;BME280;63555;49.920;17.868;2023-02-19T13:41:39;98589.09;;;5.67;78.54
69911;BME280;63555;49.920;17.868;2023-02-19T13:46:42;98604.41;;;5.73;78.30
69911;BME280;63555;49.920;17.868;2023-02-19T13:51:47;98622.06;;;5.69;78.10
69911;BME280;63555;49.920;17.868;2023-02-19T13:56:48;98635.16;;;5.69;78.40
69911;BME280;63555;49.920;17.868;2023-02-19T14:27:50;98676.28;;;5.97;77.45
69911;BME280;63555;49.920;17.868;2023-02-19T14:32:51;98689.09;;;6.02;76.78
69911;BME280;63555;49.920;17.868;2023-02-19T14:37:54;98697.03;;;6.00;76.17
69911;BME280;63555;49.920;17.868;2023-02-19T14:42:56;98713.78;;;5.98;76.60
69911;BME280;63555;49.920;17.868;2023-02-19T14:47:57;98728.31;;;5.72;75.75
69911;BME280;63555;49.920;17.868;2023-02-19T14:53:00;98742.72;;;5.16;77.28
69911;BME280;63555;49.920;17.868;2023-02-19T14:58:16;98743.09;;;4.93;77.77
69911;BME280;63555;49.920;17.868;2023-02-19T15:03:35;98766.75;;;4.74;77.86
69911;BME280;63555;49.920;17.868;2023-02-19T15:08:44;98773.28;;;4.65;78.58
69911;BME280;63555;49.920;17.868;2023-02-19T15:13:57;98783.41;;;4.71;78.08
69911;BME280;63555;49.920;17.868;2023-02-19T15:18:59;98792.63;;;4.78;78.21
69911;BME280;63555;49.920;17.868;2023-02-19T15:24:04;98805.28;;;4.86;77.98
69911;BME280;63555;49.920;17.868;2023-02-19T15:29:10;98810.41;;;5.05;77.85
69911;BME280;63555;49.920;17.868;2023-02-19T15:34:25;98824.31;;;5.23;77.07
69911;BME280;63555;49.920;17.868;2023-02-19T15:39:33;98832.75;;;5.28;76.60
69911;BME280;63555;49.920;17.868;2023-02-19T15:50:33;98860.13;;;5.03;76.38
69911;BME280;63555;49.920;17.868;2023-02-19T15:55:40;98882.13;;;4.82;75.85
69911;BME280;63555;49.920;17.868;2023-02-19T16:00:47;98888.88;;;4.52;76.34
69911;BME280;63555;49.920;17.868;2023-02-19T16:06:12;98896.25;;;4.25;75.96
69911;BME280;63555;49.920;17.868;2023-02-19T16:16:26;98923.06;;;3.53;75.12
69911;BME280;63555;49.920;17.868;2023-02-19T16:21:31;98934.50;;;3.10;75.90
69911;BME280;63555;49.920;17.868;2023-02-19T16:26:42;98933.28;;;2.76;76.29
69911;BME280;63555;49.920;17.868;2023-02-19T16:32:03;98947.34;;;2.50;76.53
69911;BME280;63555;49.920;17.868;2023-02-19T16:37:31;98952.69;;;2.26;76.65
69911;BME280;63555;49.920;17.868;2023-02-19T16:42:33;98970.84;;;2.04;77.16
69911;BME280;63555;49.920;17.868;2023-02-19T16:47:36;98983.47;;;1.91;77.52
69911;BME280;63555;49.920;17.868;2023-02-19T16:52:49;98989.91;;;1.81;77.58
69911;BME280;63555;49.920;17.868;2023-02-19T16:57:50;99001.38;;;1.75;77.63
69911;BME280;63555;49.920;17.868;2023-02-19T17:02:54;99013.88;;;1.64;77.34
69911;BME280;63555;49.920;17.868;2023-02-19T17:07:55;99024.72;;;1.52;77.05
69911;BME280;63555;49.920;17.868;2023-02-19T17:12:56;99030.06;;;1.47;77.72
69911;BME280;63555;49.920;17.868;2023-02-19T17:17:56;99039.69;;;1.45;77.82
69911;BME280;63555;49.920;17.868;2023-02-19T17:22:56;99044.03;;;1.45;77.36
69911;BME280;63555;49.920;17.868;2023-02-19T17:27:58;99042.13;;;1.50;78.13
69911;BME280;63555;49.920;17.868;2023-02-19T17:32:58;99053.84;;;1.62;78.27
69911;BME280;63555;49.920;17.868;2023-02-19T17:37:58;99067.34;;;1.71;77.38
69911;BME280;63555;49.920;17.868;2023-02-19T17:42:59;99078.31;;;1.81;77.97
69911;BME280;63555;49.920;17.868;2023-02-19T17:48:00;99082.19;;;1.94;77.58
69911;BME280;63555;49.920;17.868;2023-02-19T17:53:00;99103.66;;;1.99;76.79
69911;BME280;63555;49.920;17.868;2023-02-19T17:58:00;99098.78;;;1.90;76.99
69911;BME280;63555;49.920;17.868;2023-02-19T18:03:02;99100.88;;;1.80;76.33
69911;BME280;63555;49.920;17.868;2023-02-19T18:08:02;99110.56;;;1.75;77.12
69911;BME280;63555;49.920;17.868;2023-02-19T18:13:02;99117.47;;;1.76;77.25
69911;BME280;63555;49.920;17.868;2023-02-19T18:18:03;99111.38;;;1.77;77.92
69911;BME280;63555;49.920;17.868;2023-02-19T18:23:04;99105.22;;;1.80;77.90
69911;BME280;63555;49.920;17.868;2023-02-19T18:28:04;99118.31;;;1.77;77.55
69911;BME280;63555;49.920;17.868;2023-02-19T18:33:04;99141.47;;;1.84;77.52
69911;BME280;63555;49.920;17.868;2023-02-19T18:38:05;99135.25;;;1.88;77.11
69911;BME280;63555;49.920;17.868;2023-02-19T18:43:06;99144.66;;;1.66;76.39
69911;BME280;63555;49.920;17.868;2023-02-19T18:48:06;99156.00;;;1.37;77.00
69911;BME280;63555;49.920;17.868;2023-02-19T18:53:07;99165.31;;;1.16;76.69
69911;BME280;63555;49.920;17.868;2023-02-19T18:58:07;99158.81;;;1.03;77.30
69911;BME280;63555;49.920;17.868;2023-02-19T19:03:07;99163.47;;;0.92;77.51
69911;BME280;63555;49.920;17.868;2023-02-19T19:08:08;99174.00;;;0.87;77.70
69911;BME280;63555;49.920;17.868;2023-02-19T19:13:08;99182.38;;;0.97;77.73
69911;BME280;63555;49.920;17.868;2023-02-19T19:18:10;99194.13;;;1.09;77.90
69911;BME280;63555;49.920;17.868;2023-02-19T19:23:11;99197.56;;;1.37;78.16
69911;BME280;63555;49.920;17.868;2023-02-19T19:28:11;99198.38;;;1.66;77.80
69911;BME280;63555;49.920;17.868;2023-02-19T19:33:12;99189.38;;;1.77;77.99
69911;BME280;63555;49.920;17.868;2023-02-19T19:38:12;99198.88;;;1.78;77.45
69911;BME280;63555;49.920;17.868;2023-02-19T19:43:13;99214.31;;;1.83;77.23
69911;BME280;63555;49.920;17.868;2023-02-19T19:48:13;99203.59;;;1.92;77.15
69911;BME280;63555;49.920;17.868;2023-02-19T19:53:14;99205.00;;;2.02;77.39
69911;BME280;63555;49.920;17.868;2023-02-19T19:58:14;99211.69;;;2.09;76.98
69911;BME280;63555;49.920;17.868;2023-02-19T20:03:16;99216.63;;;2.17;77.41
69911;BME280;63555;49.920;17.868;2023-02-19T20:08:17;99216.69;;;2.15;76.99
69911;BME280;63555;49.920;17.868;2023-02-19T20:13:18;99204.69;;;2.11;77.39
69911;BME280;63555;49.920;17.868;2023-02-19T20:18:20;99215.97;;;2.10;76.96
69911;BME280;63555;49.920;17.868;2023-02-19T20:23:20;99211.53;;;2.14;77.69
69911;BME280;63555;49.920;17.868;2023-02-19T20:28:21;99224.97;;;2.27;77.63
69911;BME280;63555;49.920;17.868;2023-02-19T20:33:21;99229.84;;;2.36;76.62
69911;BME280;63555;49.920;17.868;2023-02-19T20:38:22;99239.94;;;2.45;77.47
69911;BME280;63555;49.920;17.868;2023-02-19T20:43:22;99248.38;;;2.51;76.70
69911;BME280;63555;49.920;17.868;2023-02-19T20:48:22;99247.53;;;2.51;76.25
69911;BME280;63555;49.920;17.868;2023-02-19T20:53:26;99244.13;;;2.49;75.57
69911;BME280;63555;49.920;17.868;2023-02-19T20:58:27;99258.00;;;2.49;76.09
69911;BME280;63555;49.920;17.868;2023-02-19T21:03:29;99242.47;;;2.46;75.89
69911;BME280;63555;49.920;17.868;2023-02-19T21:08:29;99240.25;;;2.36;75.31
69911;BME280;63555;49.920;17.868;2023-02-19T21:13:29;99259.09;;;2.17;75.31
69911;BME280;63555;49.920;17.868;2023-02-19T21:18:30;99272.63;;;2.02;75.31
69911;BME280;63555;49.920;17.868;2023-02-19T21:23:30;99282.72;;;1.85;74.78
69911;BME280;63555;49.920;17.868;2023-02-19T21:28:30;99285.66;;;1.73;75.35
69911;BME280;63555;49.920;17.868;2023-02-19T21:33:31;99287.81;;;1.60;74.83
69911;BME280;63555;49.920;17.868;2023-02-19T21:38:31;99291.88;;;1.41;75.20
69911;BME280;63555;49.920;17.868;2023-02-19T21:43:32;99296.88;;;1.17;75.08
69911;BME280;63555;49.920;17.868;2023-02-19T21:48:32;99302.75;;;0.94;74.84
69911;BME280;63555;49.920;17.868;2023-02-19T21:53:32;99304.03;;;0.78;75.36
69911;BME280;63555;49.920;17.868;2023-02-19T21:58:33;99311.19;;;0.70;76.31
69911;BME280;63555;49.920;17.868;2023-02-19T22:03:33;99323.44;;;0.65;75.97
69911;BME280;63555;49.920;17.868;2023-02-19T22:08:33;99334.09;;;0.54;76.14
69911;BME280;63555;49.920;17.868;2023-02-19T22:13:34;99335.91;;;0.51;76.61
69911;BME280;63555;49.920;17.868;2023-02-19T22:18:34;99342.59;;;0.59;76.88
69911;BME280;63555;49.920;17.868;2023-02-19T22:23:34;99345.06;;;0.64;76.75
69911;BME280;63555;49.920;17.868;2023-02-19T22:28:37;99352.66;;;0.72;76.62
69911;BME280;63555;49.920;17.868;2023-02-19T22:33:37;99358.41;;;0.83;76.80
69911;BME280;63555;49.920;17.868;2023-02-19T22:38:37;99363.53;;;0.87;76.94
69911;BME280;63555;49.920;17.868;2023-02-19T22:43:38;99361.88;;;0.83;76.80
69911;BME280;63555;49.920;17.868;2023-02-19T22:48:38;99360.22;;;0.81;76.97
69911;BME280;63555;49.920;17.868;2023-02-19T22:53:47;99367.91;;;0.84;77.36
69911;BME280;63555;49.920;17.868;2023-02-19T22:58:48;99381.69;;;0.86;77.07
69911;BME280;63555;49.920;17.868;2023-02-19T23:03:51;99380.88;;;0.84;77.33
69911;BME280;63555;49.920;17.868;2023-02-19T23:08:53;99385.19;;;0.85;77.48
69911;BME280;63555;49.920;17.868;2023-02-19T23:13:56;99395.31;;;0.95;77.07
69911;BME280;63555;49.920;17.868;2023-02-19T23:18:57;99399.25;;;1.10;77.12
69911;BME280;63555;49.920;17.868;2023-02-19T23:23:57;99395.41;;;1.23;76.99
69911;BME280;63555;49.920;17.868;2023-02-19T23:28:58;99390.06;;;1.30;77.07
69911;BME280;63555;49.920;17.868;2023-02-19T23:33:58;99392.66;;;1.30;76.81
69911;BME280;63555;49.920;17.868;2023-02-19T23:38:59;99388.44;;;1.25;76.18
69911;BME280;63555;49.920;17.868;2023-02-19T23:43:59;99391.34;;;1.15;76.28
69911;BME280;63555;49.920;17.868;2023-02-19T23:48:59;99388.00;;;1.10;76.74
69911;BME280;63555;49.920;17.868;2023-02-19T23:54:00;99372.50;;;1.07;76.27
69911;BME280;63555;49.920;17.868;2023-02-19T23:59:00;99372.47;;;1.08;76.38
